Time;durP1;ratioP1;P1;durP2;ratioP2;P2;SDS_P1;SDS_P2;PMS_P1;PMS_P2;Temp;Humidity;BMP_temperature;BMP_pressure;BME280_temperature;BME280_humidity;BME280_pressure;Samples;Min_cycle;Max_cycle;Signal;HPM_P1;HPM_P2
2021/10/23 00:01:09;;;;;;;;;9.50;6.25;;;;;12.07;80.10;101926.97;5074410;28;45884;-82
2021/10/23 00:03:34;;;;;;;;;7.50;7.00;;;;;11.85;80.40;101897.56;5074328;28;45648;-81
2021/10/23 00:06:00;;;;;;;;;8.00;5.75;;;;;11.72;79.98;101873.72;5074385;28;45560;-81
2021/10/23 00:08:25;;;;;;;;;7.00;5.50;;;;;11.93;79.57;101908.47;5055714;28;47393;-81
2021/10/23 00:10:51;;;;;;;;;5.00;4.75;;;;;11.91;79.88;101905.09;5074063;28;45681;-80
2021/10/23 00:13:16;;;;;;;;;9.75;7.50;;;;;11.97;79.94;101911.81;5074908;28;45614;-81
2021/10/23 00:15:41;;;;;;;;;7.75;7.75;;;;;12.05;80.00;101920.09;5056541;28;47551;-81
2021/10/23 00:21:29;;;;;;;;;6.75;6.25;;;;;12.02;79.87;101921.13;5077189;28;45922;-79
2021/10/23 00:23:54;;;;;;;;;7.00;5.00;;;;;12.00;79.47;101912.47;5059331;28;45628;-81
2021/10/23 00:26:20;;;;;;;;;5.00;4.25;;;;;12.00;79.56;101907.22;5077546;28;46341;-81
2021/10/23 00:28:45;;;;;;;;;10.00;7.25;;;;;11.73;80.39;101872.00;5077493;28;46125;-82
2021/10/23 00:31:11;;;;;;;;;6.25;5.00;;;;;11.95;80.38;101914.50;5077203;28;45598;-81
2021/10/23 00:33:37;;;;;;;;;6.25;6.00;;;;;12.03;79.72;101933.31;5077613;28;45487;-81
2021/10/23 00:36:02;;;;;;;;;4.50;3.50;;;;;11.92;79.69;101911.22;5059158;28;48497;-80
2021/10/23 00:38:28;;;;;;;;;6.25;6.00;;;;;11.94;79.62;101917.22;5078188;28;45842;-79
2021/10/23 00:40:53;;;;;;;;;8.00;6.50;;;;;12.04;79.90;101936.75;5077750;28;45649;-82
2021/10/23 00:43:19;;;;;;;;;4.00;4.00;;;;;11.83;79.65;101904.66;5077619;28;45662;-79
2021/10/23 00:45:45;;;;;;;;;5.50;5.50;;;;;11.96;79.74;101918.84;5077401;28;45650;-80
2021/10/23 00:51:32;;;;;;;;;5.50;4.25;;;;;11.85;79.02;101892.31;5084398;28;45559;-80
2021/10/23 00:53:57;;;;;;;;;6.00;5.00;;;;;12.02;79.08;101934.25;5085389;28;45505;-81
2021/10/23 00:56:22;;;;;;;;;5.50;4.00;;;;;11.80;79.56;101888.25;5085107;28;45564;-81
2021/10/23 00:58:48;;;;;;;;;5.50;5.00;;;;;12.00;79.33;101925.59;5083961;28;45597;-81
2021/10/23 01:01:13;;;;;;;;;5.00;4.00;;;;;11.76;78.85;101887.59;5079156;28;45815;-81
2021/10/23 01:03:39;;;;;;;;;5.00;4.50;;;;;11.80;79.06;101896.97;5076938;28;45499;-81
2021/10/23 01:06:06;;;;;;;;;8.50;5.00;;;;;11.82;79.13;101894.28;5076235;28;46390;-80
2021/10/23 01:08:32;;;;;;;;;5.50;4.00;;;;;11.92;79.28;101898.09;5076801;28;46236;-81
2021/10/23 01:10:58;;;;;;;;;7.50;5.50;;;;;11.97;79.43;101912.66;5076889;28;45757;-81
2021/10/23 01:13:23;;;;;;;;;3.75;3.75;;;;;12.01;79.02;101916.78;5077100;28;45569;-80
2021/10/23 01:15:48;;;;;;;;;6.75;5.00;;;;;11.98;79.28;101914.34;5076915;28;45777;-81
2021/10/23 01:21:36;;;;;;;;;5.25;5.00;;;;;12.05;78.94;101922.72;5078961;28;45609;-81
2021/10/23 01:24:04;;;;;;;;;5.00;4.50;;;;;12.03;79.30;101916.72;5078208;28;45587;-81
2021/10/23 01:26:29;;;;;;;;;6.50;6.00;;;;;11.86;78.75;101882.66;5077294;28;46885;-81
2021/10/23 01:28:55;;;;;;;;;5.00;4.00;;;;;12.06;78.93;101913.91;5074382;28;47282;-79
2021/10/23 01:31:20;;;;;;;;;5.00;3.75;;;;;12.03;79.09;101900.97;5057899;28;45618;-81
2021/10/23 01:33:46;;;;;;;;;6.25;5.00;;;;;12.01;78.41;101900.19;5076817;28;45733;-81
2021/10/23 01:36:17;;;;;;;;;5.00;4.25;;;;;12.08;78.72;101914.69;5076374;28;45522;-80
2021/10/23 01:38:46;;;;;;;;;5.00;4.00;;;;;11.84;79.22;101877.50;5076439;28;46055;-79
2021/10/23 01:41:12;;;;;;;;;3.75;3.75;;;;;12.03;78.48;101904.44;5076430;28;45597;-80
2021/10/23 01:43:38;;;;;;;;;5.00;4.75;;;;;12.08;78.54;101919.94;5057396;28;45577;-81
2021/10/23 01:46:04;;;;;;;;;4.00;4.00;;;;;12.08;78.77;101899.75;5076137;28;46513;-81
2021/10/23 01:51:51;;;;;;;;;4.00;3.75;;;;;12.08;78.91;101909.41;5075918;28;45761;-81
2021/10/23 01:54:20;;;;;;;;;8.00;5.25;;;;;12.11;78.45;101909.22;5057397;28;45936;-81
2021/10/23 01:56:45;;;;;;;;;4.00;4.00;;;;;12.11;78.83;101902.19;5041325;28;48516;-81
2021/10/23 01:59:11;;;;;;;;;3.75;3.00;;;;;11.94;77.98;101867.31;5057396;28;47140;-80
2021/10/23 02:01:36;;;;;;;;;4.00;4.00;;;;;11.86;78.54;101846.75;5075988;28;45515;-81
2021/10/23 02:04:02;;;;;;;;;5.50;4.75;;;;;12.13;78.26;101894.25;5057521;28;45598;-81
2021/10/23 02:06:28;;;;;;;;;4.25;4.00;;;;;12.02;78.49;101881.72;5075698;28;45681;-80
2021/10/23 02:08:54;;;;;;;;;7.00;4.25;;;;;12.12;78.37;101890.75;5073800;28;45839;-80
2021/10/23 02:11:20;;;;;;;;;5.00;5.00;;;;;12.14;78.78;101895.94;5073861;28;45890;-81
2021/10/23 02:13:47;;;;;;;;;8.25;4.25;;;;;12.12;78.35;101890.75;5075901;28;45692;-79
2021/10/23 02:16:13;;;;;;;;;4.75;4.75;;;;;11.97;78.40;101859.28;5057273;28;47459;-82
2021/10/23 02:22:00;;;;;;;;;5.00;3.75;;;;;12.09;78.66;101876.97;5075562;28;45751;-81
2021/10/23 02:24:25;;;;;;;;;5.50;5.00;;;;;11.81;78.53;101826.94;5057467;28;46017;-80
2021/10/23 02:26:51;;;;;;;;;4.25;4.00;;;;;11.96;78.45;101852.31;5075545;28;45574;-80
2021/10/23 02:29:16;;;;;;;;;6.75;4.25;;;;;12.10;78.76;101873.38;5075503;28;46251;-81
2021/10/23 02:31:42;;;;;;;;;5.00;5.00;;;;;11.92;78.51;101843.78;5075325;28;45671;-81
2021/10/23 02:34:07;;;;;;;;;5.00;4.00;;;;;12.09;78.51;101859.41;5057273;28;45973;-79
2021/10/23 02:36:33;;;;;;;;;4.75;4.50;;;;;12.13;78.79;101860.09;5075692;28;46327;-81
2021/10/23 02:38:58;;;;;;;;;5.75;5.00;;;;;12.23;78.75;101873.53;5075792;28;45801;-80
2021/10/23 02:41:25;;;;;;;;;6.75;5.25;;;;;12.25;78.47;101874.31;5076039;28;45684;-81
2021/10/23 02:43:52;;;;;;;;;6.00;5.00;;;;;11.95;78.52;101821.72;5057921;28;45970;-80
2021/10/23 02:46:18;;;;;;;;;5.50;5.00;;;;;12.20;78.65;101866.66;5080712;28;46441;-80
2021/10/23 02:52:06;;;;;;;;;5.75;5.00;;;;;12.24;78.67;101877.88;5086185;28;45676;-81
2021/10/23 02:54:31;;;;;;;;;5.00;5.00;;;;;12.07;78.80;101848.16;5063964;28;45684;-81
2021/10/23 02:56:57;;;;;;;;;4.50;3.75;;;;;12.12;78.42;101855.75;5080061;28;45656;-81
2021/10/23 02:59:22;;;;;;;;;5.75;5.50;;;;;12.24;78.12;101889.22;5075117;28;45727;-81
2021/10/23 03:01:47;;;;;;;;;7.50;4.00;;;;;11.98;78.50;101837.34;5075268;28;45668;-81
2021/10/23 03:04:13;;;;;;;;;5.75;4.50;;;;;12.10;78.77;101873.38;5073600;28;45848;-81
2021/10/23 03:06:38;;;;;;;;;4.25;3.75;;;;;12.15;78.23;101879.22;5074882;28;45552;-81
2021/10/23 03:09:04;;;;;;;;;5.00;5.00;;;;;12.23;78.57;101890.16;5074635;28;45619;-80
2021/10/23 03:11:30;;;;;;;;;4.00;4.00;;;;;12.20;78.92;101883.28;5074815;28;45566;-80
2021/10/23 03:13:56;;;;;;;;;3.25;3.25;;;;;12.23;78.23;101894.56;5074857;28;45491;-81
2021/10/23 03:16:22;;;;;;;;;5.75;5.75;;;;;12.19;78.47;101886.88;5074858;28;45541;-80
2021/10/23 03:22:09;;;;;;;;;4.00;4.00;;;;;12.11;78.24;101864.56;5074485;28;45682;-81
2021/10/23 03:24:34;;;;;;;;;8.00;6.00;;;;;12.25;78.18;101893.56;5074643;28;45696;-81
2021/10/23 03:27:00;;;;;;;;;8.00;5.00;;;;;12.23;78.34;101887.53;5056022;28;47688;-81
2021/10/23 03:29:25;;;;;;;;;4.00;4.00;;;;;12.01;78.06;101853.75;5074630;28;46528;-81
2021/10/23 03:31:51;;;;;;;;;5.50;4.00;;;;;12.26;78.41;101884.69;5074235;28;45649;-80
2021/10/23 03:37:38;;;;;;;;;3.00;3.00;;;;;12.27;78.21;101891.66;5074545;28;45632;-81
2021/10/23 03:40:06;;;;;;;;;5.00;4.00;;;;;12.28;78.31;101895.13;5074488;28;45752;-81
2021/10/23 03:42:31;;;;;;;;;5.00;3.50;;;;;12.06;77.98;101856.97;5055769;28;45641;-81
2021/10/23 03:44:57;;;;;;;;;3.50;3.50;;;;;12.08;78.53;101860.34;5056053;28;45899;-80
2021/10/23 03:47:22;;;;;;;;;5.00;4.00;;;;;12.07;78.25;101850.78;5074231;28;46486;-80
2021/10/23 03:49:48;;;;;;;;;4.25;3.50;;;;;12.29;78.32;101881.06;5074217;28;46020;-81
2021/10/23 03:52:15;;;;;;;;;4.25;4.00;;;;;12.07;78.28;101849.94;5074463;28;45570;-81
2021/10/23 03:54:41;;;;;;;;;5.00;4.00;;;;;12.22;78.36;101879.72;5074771;28;45569;-80
2021/10/23 03:57:08;;;;;;;;;5.00;4.75;;;;;12.23;78.15;101870.91;5078032;28;46413;-81
2021/10/23 03:59:33;;;;;;;;;4.00;3.50;;;;;12.20;78.30;101864.03;5077761;28;46468;-79
2021/10/23 04:01:59;;;;;;;;;5.00;4.00;;;;;12.26;77.90;101860.22;5077754;28;45644;-81
2021/10/23 04:07:46;;;;;;;;;5.25;4.25;;;;;12.29;78.17;101868.78;5077601;28;45975;-80
2021/10/23 04:10:12;;;;;;;;;9.25;6.25;;;;;12.31;78.38;101869.50;5077540;28;45822;-81
2021/10/23 04:12:37;;;;;;;;;5.00;5.00;;;;;12.39;77.81;101882.22;5077619;28;45632;-81
2021/10/23 04:15:03;;;;;;;;;6.25;6.25;;;;;12.37;78.10;101879.69;5078086;28;45621;-80
2021/10/23 04:17:29;;;;;;;;;3.75;3.00;;;;;12.12;77.96;101838.22;5080302;28;45992;-80
2021/10/23 04:19:55;;;;;;;;;5.00;5.00;;;;;12.17;78.28;101841.44;5080533;28;46623;-80
2021/10/23 04:22:21;;;;;;;;;5.50;5.00;;;;;12.31;78.24;101860.81;5080379;28;45462;-81
2021/10/23 04:24:47;;;;;;;;;6.00;5.00;;;;;12.36;78.27;101872.72;5079938;28;45521;-81
2021/10/23 04:27:12;;;;;;;;;5.50;4.75;;;;;12.37;78.45;101874.41;5077903;28;45448;-80
2021/10/23 04:29:38;;;;;;;;;8.75;5.25;;;;;12.27;77.90;101861.91;5077474;28;45491;-80
2021/10/23 04:32:03;;;;;;;;;4.25;3.25;;;;;12.39;77.86;101871.72;5077542;28;45486;-80
2021/10/23 04:37:50;;;;;;;;;9.00;7.50;;;;;12.41;78.29;101870.69;5083804;28;46053;-80
2021/10/23 04:40:16;;;;;;;;;6.00;6.00;;;;;12.37;77.90;101874.41;5083864;28;46175;-80
2021/10/23 04:42:41;;;;;;;;;6.25;5.50;;;;;12.33;78.20;101856.28;5064665;28;45533;-80
2021/10/23 04:45:07;;;;;;;;;3.50;3.25;;;;;12.43;77.95;101889.84;5081987;28;45447;-81
2021/10/23 04:47:33;;;;;;;;;6.75;5.50;;;;;12.38;77.72;101875.28;5080077;28;45740;-80
2021/10/23 04:49:58;;;;;;;;;6.50;5.00;;;;;12.33;78.09;101867.66;5082976;28;46304;-80
2021/10/23 04:52:23;;;;;;;;;6.50;4.25;;;;;12.25;77.79;101859.38;5059291;28;45780;-80
2021/10/23 04:54:49;;;;;;;;;3.00;3.00;;;;;12.38;77.85;101888.41;5075804;28;45636;-81
2021/10/23 04:57:14;;;;;;;;;7.00;5.50;;;;;12.34;77.86;101887.75;5076921;28;45668;-82
2021/10/23 04:59:40;;;;;;;;;3.25;3.25;;;;;12.26;77.44;101870.72;5076886;28;45754;-81
2021/10/23 05:02:05;;;;;;;;;4.50;4.50;;;;;12.35;77.49;101888.59;5076805;28;45641;-79
2021/10/23 05:07:52;;;;;;;;;4.50;4.25;;;;;12.23;77.51;101876.16;5076374;28;45440;-80
2021/10/23 05:10:18;;;;;;;;;5.75;5.00;;;;;12.29;77.65;101894.22;5076663;28;46560;-81
2021/10/23 05:12:44;;;;;;;;;4.25;4.00;;;;;12.27;77.73;101899.53;5076811;28;45648;-80
2021/10/23 05:15:09;;;;;;;;;4.75;4.25;;;;;12.28;77.64;101897.75;5077176;28;45813;-80
2021/10/23 05:17:35;;;;;;;;;4.00;3.25;;;;;12.27;77.89;101894.28;5076884;28;45706;-79
2021/10/23 05:20:01;;;;;;;;;2.25;2.25;;;;;12.29;77.87;101895.06;5076625;28;46239;-81
2021/10/23 05:22:26;;;;;;;;;3.25;3.00;;;;;12.10;77.97;101873.38;5076751;28;46038;-81
2021/10/23 05:24:51;;;;;;;;;6.75;4.75;;;;;12.20;77.89;101890.31;5076715;28;45679;-81
2021/10/23 05:27:17;;;;;;;;;4.00;3.00;;;;;12.25;77.25;101904.06;5076731;28;45589;-80
2021/10/23 05:29:43;;;;;;;;;4.00;4.00;;;;;12.24;78.14;101899.72;5076449;28;45539;-81
2021/10/23 05:32:08;;;;;;;;;5.00;4.25;;;;;12.13;77.72;101878.47;5075125;28;45640;-80
2021/10/23 05:37:55;;;;;;;;;6.25;5.00;;;;;12.12;77.44;101876.78;5076233;28;46077;-80
2021/10/23 05:40:21;;;;;;;;;4.50;4.00;;;;;12.22;77.75;101901.59;5076348;28;46273;-80
2021/10/23 05:42:47;;;;;;;;;9.00;3.50;;;;;12.24;77.56;101902.34;5076572;28;45557;-80
2021/10/23 05:45:13;;;;;;;;;6.75;5.00;;;;;12.06;77.43;101872.72;5076624;28;45625;-79
2021/10/23 05:47:39;;;;;;;;;4.00;4.00;;;;;12.24;77.20;101906.75;5058270;28;47398;-81
2021/10/23 05:53:26;;;;;;;;;4.50;4.00;;;;;12.18;77.90;101894.81;5076644;28;45660;-81
2021/10/23 05:55:52;;;;;;;;;4.25;4.00;;;;;12.19;77.55;101899.16;5077580;28;45615;-80
2021/10/23 05:58:17;;;;;;;;;5.00;4.00;;;;;12.20;77.37;101906.06;5077613;28;46253;-81
2021/10/23 06:00:49;;;;;;;;;6.00;4.00;;;;;12.11;77.46;101896.09;5077357;28;45652;-81
2021/10/23 06:03:18;;;;;;;;;4.75;4.00;;;;;12.20;77.00;101903.44;5077187;28;45555;-80
2021/10/23 06:05:43;;;;;;;;;4.50;4.50;;;;;12.02;77.45;101876.47;5076796;28;45668;-80
2021/10/23 06:08:09;;;;;;;;;5.50;4.50;;;;;11.94;77.46;101865.53;5076203;28;46392;-81
2021/10/23 06:10:34;;;;;;;;;5.25;4.00;;;;;12.20;77.36;101903.44;5076134;28;46485;-80
2021/10/23 06:13:00;;;;;;;;;3.50;2.25;;;;;12.13;77.25;101902.13;5076889;28;45684;-81
2021/10/23 06:15:25;;;;;;;;;8.50;5.00;;;;;12.04;77.59;101884.22;5058201;28;45859;-82
2021/10/23 06:17:51;;;;;;;;;5.25;4.75;;;;;12.13;77.24;101896.88;5074779;28;46348;-80
2021/10/23 06:23:38;;;;;;;;;3.75;3.75;;;;;12.20;77.19;101927.94;5075826;28;45610;-80
2021/10/23 06:26:03;;;;;;;;;4.25;4.00;;;;;12.09;77.49;101901.44;5076429;28;45565;-81
2021/10/23 06:28:29;;;;;;;;;5.00;4.00;;;;;12.08;77.28;101896.28;5079040;28;46722;-80
2021/10/23 06:30:55;;;;;;;;;3.75;3.75;;;;;12.23;77.27;101924.31;5078641;28;45763;-80
2021/10/23 06:33:20;;;;;;;;;5.25;4.50;;;;;12.07;77.26;101905.94;5078583;28;45693;-81
2021/10/23 06:35:46;;;;;;;;;5.75;5.00;;;;;12.15;77.39;101919.47;5078489;28;45765;-80
2021/10/23 06:38:12;;;;;;;;;5.25;3.25;;;;;12.25;77.39;101921.59;5078059;28;45993;-81
2021/10/23 06:40:37;;;;;;;;;9.00;7.25;;;;;12.13;77.15;101908.22;5059355;28;47300;-81
2021/10/23 06:43:03;;;;;;;;;3.50;3.00;;;;;12.34;77.48;101942.94;5076156;28;45664;-79
2021/10/23 06:45:29;;;;;;;;;4.00;4.00;;;;;12.35;77.42;101941.16;5075639;28;45600;-80
2021/10/23 06:47:56;;;;;;;;;22.00;19.25;;;;;12.13;76.90;101897.72;5066964;28;45728;-80
2021/10/23 06:53:44;;;;;;;;;3.75;3.75;;;;;12.28;77.17;101943.28;5078775;28;45774;-83
2021/10/23 06:56:10;;;;;;;;;3.00;3.00;;;;;12.34;77.21;101948.19;5062287;28;45613;-83
2021/10/23 06:58:36;;;;;;;;;6.50;4.00;;;;;12.31;77.43;101943.09;5079217;28;46754;-82
2021/10/23 07:01:04;;;;;;;;;4.75;3.50;;;;;12.23;77.01;101934.81;5079443;28;45529;-82
2021/10/23 07:03:30;;;;;;;;;4.00;3.00;;;;;12.21;76.94;101931.41;5078311;28;45674;-83
2021/10/23 07:05:56;;;;;;;;;3.00;3.00;;;;;12.37;77.22;101958.53;5064236;28;45641;-78
2021/10/23 07:08:21;;;;;;;;;3.75;3.75;;;;;12.30;76.93;101951.09;5081182;28;45556;-81
2021/10/23 07:10:47;;;;;;;;;4.75;3.00;;;;;12.40;77.19;101970.66;5061804;28;47571;-82
2021/10/23 07:13:12;;;;;;;;;3.00;3.00;;;;;12.16;77.06;101929.06;5080401;28;45486;-81
2021/10/23 07:15:39;;;;;;;;;3.75;3.75;;;;;12.33;76.49;101958.78;5058649;28;45960;-81
2021/10/23 07:18:05;;;;;;;;;5.50;4.00;;;;;12.34;77.10;101955.22;5056734;28;46596;-80
2021/10/23 07:23:53;;;;;;;;;3.75;3.50;;;;;12.48;76.76;101984.19;5074807;28;45780;-80
2021/10/23 07:26:22;;;;;;;;;3.00;3.00;;;;;12.50;76.98;101984.97;5075204;28;45529;-81
2021/10/23 07:28:47;;;;;;;;;4.00;3.00;;;;;12.44;76.61;101975.66;5074867;28;46798;-81
2021/10/23 07:31:13;;;;;;;;;2.00;2.00;;;;;12.34;76.91;101957.84;5075040;28;46182;-83
2021/10/23 07:33:38;;;;;;;;;3.50;3.00;;;;;12.36;76.81;101962.06;5075365;28;45582;-86
2021/10/23 07:39:25;;;;;;;;;4.00;3.75;;;;;12.58;76.71;102003.75;5075529;28;45614;-82
2021/10/23 07:41:51;;;;;;;;;12.25;11.00;;;;;12.58;76.44;102004.63;5057021;28;46449;-80
2021/10/23 07:44:16;;;;;;;;;4.00;3.25;;;;;12.60;76.40;102010.63;5039561;28;45656;-82
2021/10/23 07:46:44;;;;;;;;;3.25;3.00;;;;;12.67;76.66;102021.66;5074850;28;45687;-81
2021/10/23 07:49:10;;;;;;;;;4.00;3.00;;;;;12.57;76.88;102005.56;5055658;28;47936;-81
2021/10/23 07:51:39;;;;;;;;;3.00;2.00;;;;;12.69;76.82;102013.66;5074304;28;46310;-80
2021/10/23 07:54:06;;;;;;;;;3.75;3.25;;;;;12.63;77.02;102006.16;5074297;28;45473;-80
2021/10/23 07:56:35;;;;;;;;;4.25;3.25;;;;;12.54;76.51;102003.09;5074591;28;45531;-81
2021/10/23 07:59:01;;;;;;;;;4.25;4.00;;;;;12.57;76.18;102005.56;5056031;28;46464;-80
2021/10/23 08:01:27;;;;;;;;;5.75;4.50;;;;;12.73;76.45;102031.00;5073907;28;46204;-80
2021/10/23 08:03:53;;;;;;;;;4.00;3.00;;;;;12.74;76.92;102032.69;5055774;28;45641;-80
2021/10/23 08:09:40;;;;;;;;;3.25;3.25;;;;;12.69;76.03;102019.78;5073904;28;45626;-83
2021/10/23 08:12:08;;;;;;;;;4.00;3.25;;;;;12.82;76.45;102036.56;5074391;28;46247;-79
2021/10/23 08:14:35;;;;;;;;;4.75;4.75;;;;;12.84;76.21;102037.31;5074152;28;45601;-82
2021/10/23 08:17:00;;;;;;;;;4.25;2.75;;;;;12.88;76.07;102032.72;5055926;28;45638;-79
2021/10/23 08:19:26;;;;;;;;;3.50;3.00;;;;;12.82;76.53;102020.78;5076318;28;46358;-82
2021/10/23 08:21:51;;;;;;;;;2.50;2.00;;;;;12.94;75.81;102035.84;5077863;28;45668;-81
2021/10/23 08:24:17;;;;;;;;;2.75;2.75;;;;;12.91;76.14;102025.50;5076768;28;45687;-81
2021/10/23 08:26:43;;;;;;;;;4.25;3.00;;;;;13.01;76.34;102025.78;5059027;28;45883;-79
2021/10/23 08:29:10;;;;;;;;;4.00;3.00;;;;;12.99;75.95;102017.16;5074225;28;45759;-82
2021/10/23 08:31:35;;;;;;;;;3.75;3.00;;;;;12.89;75.78;102000.22;5073775;28;45648;-81
2021/10/23 08:34:01;;;;;;;;;4.25;4.00;;;;;13.10;75.81;102027.91;5074246;28;45688;-82
2021/10/23 08:39:49;;;;;;;;;4.75;2.00;;;;;13.14;75.76;102029.44;5073854;28;45545;-83
2021/10/23 08:42:16;;;;;;;;;3.00;3.00;;;;;12.98;75.91;102002.31;5079022;28;46452;-84
2021/10/23 08:44:43;;;;;;;;;5.75;4.00;;;;;13.16;75.71;102024.09;5062695;28;45612;-88
2021/10/23 08:47:09;;;;;;;;;4.00;3.00;;;;;12.99;75.64;101991.72;5062870;28;45504;-82
2021/10/23 08:49:36;;;;;;;;;3.75;3.50;;;;;13.25;75.48;102031.44;5078880;28;46390;-83
2021/10/23 08:55:23;;;;;;;;;5.00;4.00;;;;;13.31;75.73;102031.09;5083575;28;45773;-82
2021/10/23 08:57:52;;;;;;;;;3.00;3.00;;;;;13.26;75.51;102014.72;5066301;28;45544;-86
2021/10/23 09:00:19;;;;;;;;;4.00;4.00;;;;;13.36;75.54;102034.28;5067828;28;47632;-87
2021/10/23 09:02:50;;;;;;;;;3.75;3.75;;;;;13.28;75.29;102018.94;5064880;28;46872;-85
2021/10/23 09:05:16;;;;;;;;;5.75;5.00;;;;;13.27;75.60;102019.06;5080886;28;45672;-83
2021/10/23 09:07:51;;;;;;;;;3.00;3.00;;;;;13.45;75.25;102045.09;5080393;28;45799;-83
2021/10/23 09:10:31;;;;;;;;;4.00;3.50;;;;;13.49;75.65;102037.03;5061171;28;48592;-82
2021/10/23 09:13:04;;;;;;;;;6.00;5.25;;;;;13.53;75.58;102035.91;5079334;28;46411;-80
2021/10/23 09:15:35;;;;;;;;;7.25;7.00;;;;;13.58;75.36;102033.84;5078778;28;45770;-83
2021/10/23 09:18:02;;;;;;;;;5.00;5.00;;;;;13.58;75.54;102018.88;5078164;28;45600;-83
2021/10/23 09:20:27;;;;;;;;;8.00;6.50;;;;;13.64;75.59;102029.06;5077700;28;45772;-81
2021/10/23 09:22:53;;;;;;;;;5.00;5.00;;;;;13.60;75.36;102013.53;5058784;28;47179;-83
2021/10/23 09:25:36;;;;;;;;;4.50;4.00;;;;;13.68;75.15;102027.06;5077284;28;45652;-85
2021/10/23 09:28:12;;;;;;;;;3.50;3.50;;;;;13.64;75.42;102012.41;5059044;28;46025;-86
2021/10/23 09:30:40;;;;;;;;;6.00;5.50;;;;;13.78;74.96;102030.81;5079224;28;46677;-80
2021/10/23 09:33:13;;;;;;;;;5.50;4.75;;;;;13.73;74.90;102023.22;5076296;28;45913;-78
2021/10/23 09:35:44;;;;;;;;;5.25;5.25;;;;;13.72;75.21;102015.41;5076851;28;45675;-82
2021/10/23 09:38:12;;;;;;;;;7.00;5.00;;;;;13.54;74.98;101984.94;5077437;28;45506;-84
2021/10/23 09:40:39;;;;;;;;;7.00;6.25;;;;;13.86;75.06;102033.84;5078854;28;45889;-89
2021/10/23 09:43:18;;;;;;;;;5.50;5.50;;;;;13.90;75.04;102031.88;5058019;28;47342;-81
2021/10/23 09:45:55;;;;;;;;;4.75;4.00;;;;;13.93;75.28;102029.06;5076154;28;45538;-81
2021/10/23 09:48:37;;;;;;;;;5.00;4.75;;;;;13.96;75.08;102026.22;5079446;28;45664;-84
2021/10/23 09:51:14;;;;;;;;;5.75;4.75;;;;;13.73;74.98;101974.94;5055217;28;47795;-82
2021/10/23 09:53:41;;;;;;;;;6.00;5.75;;;;;13.92;75.26;102004.50;5079392;28;45906;-81
2021/10/23 09:56:08;;;;;;;;;5.00;4.00;;;;;13.88;75.17;101997.69;5078605;28;45600;-79
2021/10/23 09:58:33;;;;;;;;;5.00;5.00;;;;;14.04;75.06;102005.47;5076062;28;45518;-80
2021/10/23 10:01:00;;;;;;;;;5.75;5.75;;;;;14.00;74.98;101996.09;5076400;28;45986;-80
2021/10/23 10:03:25;;;;;;;;;7.25;6.00;;;;;14.14;74.81;102010.06;5076055;28;46980;-81
2021/10/23 10:05:56;;;;;;;;;5.50;4.25;;;;;14.01;74.84;101982.81;5074803;28;45671;-83
2021/10/23 10:08:22;;;;;;;;;7.25;5.75;;;;;14.27;75.00;102018.91;5078520;28;45593;-82
2021/10/23 10:10:49;;;;;;;;;5.75;4.00;;;;;14.24;74.88;102023.53;5077018;28;45592;-83
2021/10/23 10:13:17;;;;;;;;;3.00;3.00;;;;;14.28;74.54;102033.78;5077264;28;45554;-82
2021/10/23 10:15:47;;;;;;;;;7.00;5.50;;;;;14.23;74.80;102006.88;5077737;28;45562;-80
2021/10/23 10:18:15;;;;;;;;;5.25;5.00;;;;;14.19;74.89;102001.91;5079149;28;45695;-83
2021/10/23 10:20:50;;;;;;;;;3.75;3.75;;;;;14.29;74.68;102022.31;5059674;28;47689;-85
2021/10/23 10:26:38;;;;;;;;;5.50;5.00;;;;;14.39;74.74;102021.72;5075868;28;45546;-81
2021/10/23 10:29:07;;;;;;;;;19.75;17.25;;;;;14.42;74.40;102024.16;5075719;28;45658;-79
2021/10/23 10:32:16;;;;;;;;;15.25;13.50;;;;;14.44;74.42;102025.75;5075424;28;46861;-83
2021/10/23 10:34:53;;;;;;;;;11.25;10.00;;;;;14.48;74.46;102026.41;5075668;28;45572;-81
2021/10/23 10:42:56;;;;;;;;;6.25;5.75;;;;;14.54;74.19;102024.22;5075214;28;45652;-81
2021/10/23 10:45:23;;;;;;;;;6.00;6.00;;;;;14.53;74.40;102016.41;5076975;28;45993;-79
2021/10/23 10:48:07;;;;;;;;;8.25;7.00;;;;;14.58;74.32;102019.59;5081858;28;45680;-84
2021/10/23 10:50:46;;;;;;;;;7.75;6.50;;;;;14.61;74.09;102014.97;5080094;28;45549;-80
2021/10/23 10:53:24;;;;;;;;;7.00;7.00;;;;;14.58;74.24;102001.97;5083009;28;46639;-78
2021/10/23 10:55:55;;;;;;;;;9.50;7.75;;;;;14.63;74.08;102002.50;5088058;28;45947;-84
2021/10/23 10:58:45;;;;;;;;;8.75;7.00;;;;;14.65;74.04;101999.78;5082008;28;45584;-84
2021/10/23 11:01:24;;;;;;;;;9.00;8.50;;;;;14.75;74.19;102005.28;5081078;28;45630;-83
2021/10/23 11:03:55;;;;;;;;;7.00;6.00;;;;;14.78;73.75;102003.31;5056119;28;47020;-79
2021/10/23 11:09:43;;;;;;;;;7.25;6.75;;;;;14.84;73.71;101995.00;5075137;28;45522;-79
2021/10/23 11:12:12;;;;;;;;;7.50;6.00;;;;;14.89;73.75;102003.44;5075291;28;45641;-81
2021/10/23 11:14:37;;;;;;;;;6.50;6.00;;;;;14.96;73.76;102003.84;5081051;28;45636;-85
2021/10/23 11:17:09;;;;;;;;;5.00;5.00;;;;;15.01;73.47;101997.31;5080330;28;45601;-84
2021/10/23 11:19:50;;;;;;;;;4.50;4.00;;;;;15.06;73.49;101997.03;5075357;28;45505;-83
2021/10/23 11:25:39;;;;;;;;;8.00;8.00;;;;;15.13;73.30;101985.94;5075027;28;45624;-87
2021/10/23 11:28:11;;;;;;;;;7.75;6.50;;;;;15.19;73.25;101991.75;5074486;28;47280;-82
2021/10/23 11:30:45;;;;;;;;;7.00;7.00;;;;;15.20;73.20;101986.38;5074444;28;45585;-80
2021/10/23 11:33:14;;;;;;;;;8.00;8.00;;;;;15.19;72.67;101976.75;5074807;28;45505;-81
2021/10/23 11:35:51;;;;;;;;;9.50;8.00;;;;;15.24;72.62;101977.28;5074644;28;46742;-82
2021/10/23 11:41:39;;;;;;;;;12.25;11.25;;;;;15.41;72.67;101981.41;5075709;28;45675;-88
2021/10/23 11:44:06;;;;;;;;;16.25;13.50;;;;;15.44;71.89;101975.91;5077184;28;45748;-81
2021/10/23 11:46:32;;;;;;;;;9.50;9.25;;;;;15.48;71.53;101980.88;5058143;28;47538;-84
2021/10/23 11:49:02;;;;;;;;;8.25;8.00;;;;;15.49;71.73;101974.63;5077144;28;46525;-86
2021/10/23 11:51:29;;;;;;;;;9.00;9.00;;;;;15.57;71.77;101982.06;5078786;28;46259;-80
2021/10/23 11:57:44;;;;;;;;;12.00;11.00;;;;;15.72;71.35;101980.13;5076490;28;46045;-82
2021/10/23 12:00:19;;;;;;;;;13.00;10.50;;;;;15.54;71.72;101934.75;5075897;28;45519;-82
2021/10/23 12:02:55;;;;;;;;;9.75;9.00;;;;;15.78;71.60;101975.25;5074766;28;45691;-84
2021/10/23 12:05:23;;;;;;;;;9.00;8.00;;;;;15.83;71.53;101974.94;5074715;28;45762;-81
2021/10/23 12:08:14;;;;;;;;;18.75;18.50;;;;;15.85;71.29;101978.31;5056272;28;47891;-83
2021/10/23 12:11:03;;;;;;;;;9.25;8.75;;;;;15.88;71.34;101976.28;5075175;28;45986;-85
2021/10/23 12:13:30;;;;;;;;;6.75;5.00;;;;;15.86;71.10;101970.28;5074404;28;45757;-80
2021/10/23 12:16:03;;;;;;;;;7.25;7.00;;;;;15.93;71.04;101971.53;5066952;28;45569;-84
2021/10/23 12:18:41;;;;;;;;;7.75;6.25;;;;;15.89;70.89;101967.41;5077578;28;46382;-82
2021/10/23 12:21:16;;;;;;;;;8.75;7.00;;;;;15.88;70.42;101965.72;5078235;28;46398;-81
2021/10/23 12:23:49;;;;;;;;;9.00;8.00;;;;;15.92;70.50;101972.47;5078183;28;45847;-84
2021/10/23 12:26:17;;;;;;;;;8.75;8.00;;;;;15.90;69.64;101965.63;5078948;28;45616;-82
2021/10/23 12:29:03;;;;;;;;;7.00;6.25;;;;;15.91;70.54;101965.53;5078174;28;46641;-83
2021/10/23 12:31:54;;;;;;;;;8.25;8.00;;;;;15.91;69.96;101959.38;5078192;28;45882;-83
2021/10/23 12:34:22;;;;;;;;;9.00;7.25;;;;;15.92;69.92;101966.38;5081082;28;45649;-82
2021/10/23 12:36:56;;;;;;;;;6.00;6.00;;;;;15.93;69.91;101960.94;5061863;28;45673;-81
2021/10/23 12:39:27;;;;;;;;;6.50;6.00;;;;;15.85;69.99;101950.09;5078270;28;46621;-83
2021/10/23 12:41:53;;;;;;;;;6.25;6.00;;;;;15.92;69.70;101961.91;5079614;28;46057;-83
2021/10/23 12:44:22;;;;;;;;;7.00;6.00;;;;;15.83;69.83;101949.34;5081735;28;45672;-83
2021/10/23 12:46:48;;;;;;;;;7.50;7.50;;;;;15.84;69.72;101942.25;5067409;28;45556;-82
2021/10/23 12:49:13;;;;;;;;;6.00;5.00;;;;;15.91;69.68;101954.94;5066578;28;45791;-81
2021/10/23 12:51:39;;;;;;;;;7.50;6.75;;;;;16.02;69.65;101970.03;5084984;28;46877;-81
2021/10/23 12:54:07;;;;;;;;;8.00;7.00;;;;;16.04;69.39;101960.16;5085005;28;45647;-83
2021/10/23 12:56:34;;;;;;;;;9.50;8.75;;;;;16.06;69.27;101957.44;5062429;28;45697;-82